Time;durP1;ratioP1;P1;durP2;ratioP2;P2;SDS_P1;SDS_P2;PMS_P1;PMS_P2;Temp;Humidity;BMP_temperature;BMP_pressure;BME280_temperature;BME280_humidity;BME280_pressure;Samples;Min_cycle;Max_cycle;Signal;HPM_P1;HPM_P2
2023/06/18 00:01:33;;;;;;;13.50;10.85;;;19.20;99.90;;;;;;5007208;28;20046;-56
2023/06/18 00:04:00;;;;;;;21.08;12.00;;;19.20;99.90;;;;;;5007014;28;20050;-54
2023/06/18 00:06:27;;;;;;;18.42;11.70;;;19.20;99.90;;;;;;5006295;28;20116;-53
2023/06/18 00:08:54;;;;;;;21.08;12.88;;;19.20;99.90;;;;;;5003947;28;20508;-52
2023/06/18 00:11:21;;;;;;;20.02;12.52;;;19.20;99.90;;;;;;5006819;28;20046;-53
2023/06/18 00:13:47;;;;;;;17.45;11.68;;;19.30;99.90;;;;;;5007038;28;20050;-54
2023/06/18 00:16:14;;;;;;;19.55;12.73;;;19.30;99.90;;;;;;5007184;28;20596;-54
2023/06/18 00:18:41;;;;;;;23.20;13.70;;;19.30;99.90;;;;;;5006903;28;20129;-53
2023/06/18 00:21:10;;;;;;;19.40;14.82;;;19.30;99.90;;;;;;5006990;28;20049;-53
2023/06/18 00:23:37;;;;;;;20.15;15.73;;;19.20;99.90;;;;;;5007108;28;20504;-54
2023/06/18 00:26:04;;;;;;;22.50;14.80;;;19.20;99.90;;;;;;5006848;28;20096;-55
2023/06/18 00:28:31;;;;;;;21.55;15.10;;;19.10;99.90;;;;;;5006889;28;20050;-54
2023/06/18 00:30:58;;;;;;;22.15;14.88;;;19.10;99.90;;;;;;5005715;28;20054;-54
2023/06/18 00:33:25;;;;;;;18.80;14.35;;;19.10;99.90;;;;;;4992771;28;20054;-54
2023/06/18 00:35:56;;;;;;;22.80;15.88;;;19.10;99.90;;;;;;5007081;28;20053;-54
2023/06/18 00:38:24;;;;;;;21.40;15.15;;;19.00;99.90;;;;;;5006929;28;20137;-54
2023/06/18 00:40:51;;;;;;;23.50;16.65;;;18.90;99.90;;;;;;5006653;28;20539;-51
2023/06/18 00:43:18;;;;;;;25.55;17.85;;;18.90;99.90;;;;;;5006555;28;20057;-55
2023/06/18 00:45:46;;;;;;;28.88;16.77;;;19.00;99.90;;;;;;5006426;28;20322;-55
2023/06/18 00:48:13;;;;;;;22.13;16.50;;;19.00;99.90;;;;;;5006681;28;20046;-56
2023/06/18 00:50:40;;;;;;;22.52;17.45;;;19.00;99.90;;;;;;4993527;28;20065;-56
2023/06/18 00:53:07;;;;;;;22.95;17.80;;;19.00;99.90;;;;;;4972645;28;20128;-53
2023/06/18 00:55:37;;;;;;;25.10;18.85;;;19.10;99.90;;;;;;4993215;28;20049;-54
2023/06/18 00:58:05;;;;;;;24.30;17.45;;;19.10;99.90;;;;;;5007243;28;20046;-50
2023/06/18 01:00:34;;;;;;;31.83;19.27;;;19.10;99.90;;;;;;5009746;28;20050;-52
2023/06/18 01:03:05;;;;;;;27.23;18.70;;;19.10;99.90;;;;;;5010497;28;20054;-56
2023/06/18 01:05:33;;;;;;;28.92;18.80;;;19.10;99.90;;;;;;4999835;28;20052;-53
2023/06/18 01:08:00;;;;;;;24.80;19.45;;;19.00;99.90;;;;;;5001619;28;20425;-56
2023/06/18 01:10:29;;;;;;;23.70;18.50;;;19.00;99.90;;;;;;5009572;28;20057;-53
2023/06/18 01:12:58;;;;;;;27.65;20.10;;;18.90;99.90;;;;;;4646570;28;9999739;-53
2023/06/18 01:15:28;;;;;;;28.27;20.08;;;18.90;99.90;;;;;;5007243;28;20426;-55
2023/06/18 01:17:57;;;;;;;24.55;20.17;;;18.80;99.90;;;;;;4998421;28;20042;-54
2023/06/18 01:20:25;;;;;;;21.30;17.08;;;18.80;99.90;;;;;;5009530;28;20080;-53
2023/06/18 01:23:04;;;;;;;25.52;19.60;;;18.80;99.90;;;;;;5010188;28;20049;-55
2023/06/18 01:25:32;;;;;;;27.17;21.38;;;18.80;99.90;;;;;;5006415;28;20264;-53
2023/06/18 01:28:00;;;;;;;27.83;21.17;;;18.90;99.90;;;;;;5008687;28;20444;-55
2023/06/18 01:30:27;;;;;;;24.52;19.73;;;18.90;99.90;;;;;;4999993;28;20049;-55
2023/06/18 01:32:54;;;;;;;26.70;20.67;;;18.90;99.90;;;;;;5009562;28;20042;-55
2023/06/18 01:35:21;;;;;;;30.08;20.05;;;18.90;99.90;;;;;;5010109;28;20519;-53
2023/06/18 01:38:18;;;;;;;31.90;21.77;;;18.90;99.90;;;;;;5009441;28;20054;-54
2023/06/18 01:40:46;;;;;;;32.03;22.60;;;18.90;99.90;;;;;;4988510;28;20484;-56
2023/06/18 01:43:47;;;;;;;28.40;21.45;;;18.90;99.90;;;;;;4995137;28;20050;-53
2023/06/18 01:46:20;;;;;;;23.20;19.05;;;18.90;99.90;;;;;;5008657;28;20054;-56
2023/06/18 01:49:05;;;;;;;24.48;21.52;;;18.90;99.90;;;;;;5009463;28;20048;-55
2023/06/18 01:51:32;;;;;;;30.48;21.20;;;19.00;99.90;;;;;;4975595;28;20100;-55
2023/06/18 01:54:00;;;;;;;27.80;21.15;;;18.90;99.90;;;;;;4975709;28;20100;-53
2023/06/18 01:56:29;;;;;;;24.10;20.80;;;18.90;99.90;;;;;;4994746;28;20050;-56
2023/06/18 01:58:56;;;;;;;31.13;22.88;;;18.80;99.90;;;;;;5009225;28;20046;-56
2023/06/18 02:01:26;;;;;;;29.02;23.48;;;18.80;99.90;;;;;;5009975;28;20046;-56
2023/06/18 02:03:53;;;;;;;34.10;24.90;;;18.80;99.90;;;;;;5008454;28;20049;-56
2023/06/18 02:06:20;;;;;;;33.00;24.08;;;18.70;99.90;;;;;;5008754;28;20486;-56
2023/06/18 02:08:46;;;;;;;39.50;25.33;;;18.70;99.90;;;;;;5008876;28;20050;-56
2023/06/18 02:11:13;;;;;;;32.13;24.25;;;18.70;99.90;;;;;;5007593;28;20050;-57
2023/06/18 02:13:40;;;;;;;32.65;25.92;;;18.60;99.90;;;;;;4995206;28;20145;-56
2023/06/18 02:16:07;;;;;;;31.30;25.27;;;18.50;99.90;;;;;;5008882;28;20422;-57
2023/06/18 02:18:34;;;;;;;31.58;25.75;;;18.40;99.90;;;;;;5008534;28;20124;-55
2023/06/18 02:21:00;;;;;;;33.97;26.35;;;18.30;99.90;;;;;;5013842;28;20483;-56
2023/06/18 02:23:27;;;;;;;34.97;27.88;;;18.40;99.90;;;;;;5005519;28;20134;-57
2023/06/18 02:25:57;;;;;;;32.55;25.58;;;18.40;99.90;;;;;;5008113;28;20045;-57
2023/06/18 02:28:23;;;;;;;36.45;26.48;;;18.40;99.90;;;;;;5007893;28;20042;-57
2023/06/18 02:30:50;;;;;;;34.20;26.85;;;18.40;99.90;;;;;;5008359;28;20052;-58
2023/06/18 02:33:18;;;;;;;36.38;26.48;;;18.30;99.90;;;;;;5007879;28;20061;-58
2023/06/18 02:35:44;;;;;;;32.67;26.98;;;18.20;99.90;;;;;;5008418;28;20049;-57
2023/06/18 02:38:11;;;;;;;37.58;29.77;;;18.10;99.90;;;;;;5008048;28;20394;-56
2023/06/18 02:40:38;;;;;;;39.75;28.58;;;18.10;99.90;;;;;;5010255;28;20524;-57
2023/06/18 02:43:05;;;;;;;36.40;27.30;;;18.10;99.90;;;;;;5012438;28;20072;-56
2023/06/18 02:45:32;;;;;;;33.42;28.00;;;18.00;99.90;;;;;;5007604;28;20062;-57
2023/06/18 02:47:59;;;;;;;35.42;29.30;;;17.80;99.90;;;;;;5007775;28;20424;-56
2023/06/18 02:50:26;;;;;;;38.55;28.92;;;17.80;99.90;;;;;;5007601;28;20077;-56
2023/06/18 02:52:55;;;;;;;37.05;28.75;;;17.80;99.90;;;;;;5008308;28;20050;-55
2023/06/18 02:55:22;;;;;;;31.00;27.40;;;17.90;99.90;;;;;;5006793;28;20050;-56
2023/06/18 02:57:49;;;;;;;34.83;29.48;;;17.90;99.90;;;;;;5019238;28;20053;-56
2023/06/18 03:00:16;;;;;;;37.20;29.45;;;17.90;99.90;;;;;;5006175;28;20049;-57
2023/06/18 03:02:43;;;;;;;30.98;26.40;;;18.00;99.90;;;;;;5006761;28;20457;-53
2023/06/18 03:05:10;;;;;;;33.78;27.88;;;18.10;99.90;;;;;;5006253;28;20056;-53
2023/06/18 03:07:37;;;;;;;35.65;27.67;;;18.10;99.90;;;;;;5007747;28;20104;-55
2023/06/18 03:10:04;;;;;;;32.53;27.92;;;18.10;99.90;;;;;;5007083;28;20050;-56
2023/06/18 03:12:31;;;;;;;36.60;28.38;;;18.20;99.90;;;;;;5010115;28;20527;-56
2023/06/18 03:14:58;;;;;;;37.13;28.98;;;18.20;99.90;;;;;;5006377;28;20045;-59
2023/06/18 03:17:25;;;;;;;39.88;29.92;;;18.20;99.90;;;;;;5007743;28;20054;-58
2023/06/18 03:19:52;;;;;;;38.95;30.92;;;18.20;99.90;;;;;;5007532;28;20045;-57
2023/06/18 03:22:19;;;;;;;41.67;30.13;;;18.20;99.90;;;;;;5007145;28;20069;-57
2023/06/18 03:24:45;;;;;;;43.95;31.42;;;18.20;99.90;;;;;;5005378;28;20068;-54
2023/06/18 03:27:13;;;;;;;45.08;30.92;;;18.10;99.90;;;;;;5008810;28;20073;-56
2023/06/18 03:29:40;;;;;;;41.25;29.77;;;18.10;99.90;;;;;;4999508;28;20069;-56
2023/06/18 03:32:08;;;;;;;33.13;26.95;;;18.00;99.90;;;;;;5007003;28;20046;-55
2023/06/18 03:34:35;;;;;;;31.55;25.45;;;18.00;99.90;;;;;;4998840;28;20061;-53
2023/06/18 03:37:02;;;;;;;34.85;27.40;;;18.00;99.90;;;;;;5006315;28;20077;-55
2023/06/18 03:39:29;;;;;;;33.15;26.77;;;18.00;99.90;;;;;;5007587;28;20568;-54
2023/06/18 03:41:56;;;;;;;27.33;22.45;;;18.10;99.90;;;;;;5016119;28;20042;-54
2023/06/18 03:44:22;;;;;;;23.23;19.45;;;18.10;99.90;;;;;;5007039;28;20115;-57
2023/06/18 03:46:49;;;;;;;20.67;17.15;;;18.20;99.90;;;;;;5016725;28;20045;-55
2023/06/18 03:49:16;;;;;;;18.60;15.70;;;18.30;99.90;;;;;;5004925;28;20046;-54
2023/06/18 03:51:43;;;;;;;14.70;11.27;;;18.40;99.90;;;;;;5007263;28;20119;-56
2023/06/18 03:54:10;;;;;;;15.05;11.18;;;18.40;99.90;;;;;;5007102;28;20203;-57
2023/06/18 03:56:37;;;;;;;13.77;12.30;;;18.40;99.90;;;;;;5006392;28;20053;-56
2023/06/18 03:59:04;;;;;;;24.60;17.10;;;18.30;99.90;;;;;;5006107;28;20050;-56
2023/06/18 04:01:31;;;;;;;22.55;16.42;;;18.30;99.90;;;;;;5008243;28;20052;-56
2023/06/18 04:03:59;;;;;;;22.00;17.85;;;18.30;99.90;;;;;;4996329;28;20732;-55
2023/06/18 04:06:27;;;;;;;28.27;20.63;;;18.30;99.90;;;;;;5004876;28;20052;-56
2023/06/18 04:08:54;;;;;;;26.88;20.13;;;18.30;99.90;;;;;;5007670;28;20064;-56
2023/06/18 04:11:21;;;;;;;41.42;22.13;;;18.40;99.90;;;;;;5006562;28;20283;-55
2023/06/18 04:13:48;;;;;;;25.13;21.80;;;18.30;99.90;;;;;;5007495;28;20050;-56
2023/06/18 04:16:15;;;;;;;31.98;22.40;;;18.40;99.90;;;;;;5006586;28;20053;-56
2023/06/18 04:18:41;;;;;;;32.53;23.25;;;18.40;99.90;;;;;;5007412;28;20052;-57
2023/06/18 04:21:08;;;;;;;32.03;22.85;;;18.40;99.90;;;;;;4993641;28;20121;-55
2023/06/18 04:23:35;;;;;;;35.58;22.42;;;18.40;99.90;;;;;;5007023;28;20049;-61
2023/06/18 04:26:02;;;;;;;24.50;20.50;;;18.40;99.90;;;;;;5007944;28;20041;-55
2023/06/18 04:28:29;;;;;;;25.00;21.15;;;18.40;99.90;;;;;;5008131;28;20057;-56
2023/06/18 04:30:56;;;;;;;28.63;21.48;;;18.30;99.90;;;;;;5006734;28;20137;-56
2023/06/18 04:33:23;;;;;;;23.00;20.23;;;18.40;99.90;;;;;;5011415;28;20058;-56
2023/06/18 04:35:50;;;;;;;27.80;19.83;;;18.40;99.90;;;;;;5010588;28;20038;-57
2023/06/18 04:38:16;;;;;;;22.83;17.80;;;18.40;99.90;;;;;;5015804;28;20054;-55
2023/06/18 04:40:43;;;;;;;23.45;16.25;;;18.40;99.90;;;;;;5010719;28;20117;-57
2023/06/18 04:43:10;;;;;;;18.77;15.23;;;18.40;99.90;;;;;;5010445;28;20061;-55
2023/06/18 04:45:37;;;;;;;17.05;14.85;;;18.50;99.90;;;;;;5009853;28;20061;-56
2023/06/18 04:48:04;;;;;;;23.42;18.58;;;18.50;99.90;;;;;;5010741;28;20082;-57
2023/06/18 04:50:31;;;;;;;23.95;17.75;;;18.50;99.90;;;;;;5010657;28;20092;-56
2023/06/18 04:52:59;;;;;;;20.17;15.65;;;18.60;99.90;;;;;;5010237;28;20459;-56
2023/06/18 04:55:27;;;;;;;18.58;16.05;;;18.50;99.90;;;;;;5010395;28;20497;-56
2023/06/18 04:57:54;;;;;;;22.20;16.02;;;18.60;99.90;;;;;;5010182;28;20057;-52
2023/06/18 05:00:21;;;;;;;23.65;16.25;;;18.60;99.90;;;;;;5010146;28;20054;-57
2023/06/18 05:02:50;;;;;;;19.17;16.55;;;18.60;99.90;;;;;;5010442;28;20126;-54
2023/06/18 05:05:17;;;;;;;16.98;15.18;;;18.70;99.90;;;;;;5009725;28;20315;-57
2023/06/18 05:07:45;;;;;;;16.67;14.23;;;18.70;99.90;;;;;;5010907;28;20052;-55
2023/06/18 05:10:12;;;;;;;16.35;14.05;;;18.80;99.90;;;;;;5010007;28;20527;-56
2023/06/18 05:12:38;;;;;;;22.17;14.40;;;18.80;99.90;;;;;;5010344;28;20060;-56
2023/06/18 05:15:06;;;;;;;16.35;12.80;;;18.90;99.90;;;;;;5010361;28;20440;-56
2023/06/18 05:17:34;;;;;;;16.05;12.80;;;18.90;99.90;;;;;;5012328;28;20050;-56
2023/06/18 05:20:03;;;;;;;15.27;13.18;;;18.90;99.90;;;;;;5009835;28;20050;-57
2023/06/18 05:22:31;;;;;;;15.30;11.95;;;19.00;99.90;;;;;;5009743;28;20117;-56
2023/06/18 05:25:01;;;;;;;17.88;13.05;;;19.00;99.90;;;;;;5009267;28;20049;-56
2023/06/18 05:27:30;;;;;;;14.25;12.55;;;19.00;99.90;;;;;;5009253;28;20042;-56
2023/06/18 05:29:59;;;;;;;13.05;11.57;;;19.10;99.90;;;;;;5009864;28;20480;-57
2023/06/18 05:32:26;;;;;;;15.10;12.95;;;19.10;99.90;;;;;;4999915;28;20050;-56
2023/06/18 05:34:55;;;;;;;16.13;12.73;;;19.20;99.90;;;;;;5009784;28;20046;-55
2023/06/18 05:37:22;;;;;;;16.67;13.18;;;19.20;99.90;;;;;;5009368;28;20046;-56
2023/06/18 05:39:50;;;;;;;14.05;12.55;;;19.20;99.90;;;;;;5009435;28;20053;-56
2023/06/18 05:42:17;;;;;;;15.02;12.15;;;19.20;99.90;;;;;;5016540;28;20045;-57
2023/06/18 05:44:44;;;;;;;16.63;13.80;;;19.30;99.90;;;;;;5009041;28;20050;-60
2023/06/18 05:47:11;;;;;;;14.68;12.80;;;19.30;99.90;;;;;;5015341;28;20042;-55
2023/06/18 05:49:38;;;;;;;15.05;13.38;;;19.30;99.90;;;;;;5012811;28;20046;-57
2023/06/18 05:52:05;;;;;;;20.70;14.82;;;19.30;99.90;;;;;;5014489;28;20045;-56
2023/06/18 05:54:32;;;;;;;18.83;14.43;;;19.40;99.90;;;;;;5014603;28;20053;-56
2023/06/18 05:57:00;;;;;;;18.90;13.75;;;19.30;99.90;;;;;;5009406;28;20049;-56
2023/06/18 05:59:26;;;;;;;19.75;14.82;;;19.40;99.90;;;;;;5008990;28;20052;-57
2023/06/18 06:01:54;;;;;;;16.42;13.80;;;19.40;99.90;;;;;;4996204;28;20045;-56
2023/06/18 06:04:22;;;;;;;16.95;14.05;;;19.50;99.90;;;;;;5009062;28;20045;-57
2023/06/18 06:06:49;;;;;;;16.05;14.23;;;19.50;99.90;;;;;;5008757;28;20053;-58
2023/06/18 06:09:16;;;;;;;16.20;14.05;;;19.60;99.90;;;;;;5009048;28;20054;-59
2023/06/18 06:11:43;;;;;;;19.23;15.32;;;19.60;99.90;;;;;;5009385;28;20057;-57
2023/06/18 06:14:10;;;;;;;16.65;14.05;;;19.70;99.90;;;;;;5008400;28;20056;-58
2023/06/18 06:16:37;;;;;;;22.80;14.77;;;19.70;99.90;;;;;;5008848;28;20667;-57
2023/06/18 06:19:04;;;;;;;17.27;15.20;;;19.70;99.90;;;;;;5007045;28;20061;-57
2023/06/18 06:21:33;;;;;;;18.50;14.60;;;19.70;99.90;;;;;;5008385;28;20707;-55
2023/06/18 06:24:00;;;;;;;19.35;14.70;;;19.70;99.90;;;;;;5009101;28;20046;-57
2023/06/18 06:26:27;;;;;;;21.05;14.27;;;19.70;99.90;;;;;;5006808;28;20137;-57
2023/06/18 06:28:54;;;;;;;18.13;15.10;;;19.70;99.90;;;;;;4993050;28;20133;-58
2023/06/18 06:31:21;;;;;;;20.02;15.35;;;19.60;99.90;;;;;;5008188;28;20090;-57
2023/06/18 06:33:48;;;;;;;18.00;16.05;;;19.60;99.90;;;;;;5008978;28;20069;-62
2023/06/18 06:36:15;;;;;;;21.30;16.58;;;19.60;99.90;;;;;;5007919;28;20692;-56
2023/06/18 06:38:42;;;;;;;20.70;15.45;;;19.60;99.90;;;;;;4995773;28;20046;-57
2023/06/18 06:41:09;;;;;;;18.15;15.93;;;19.70;99.90;;;;;;5008261;28;20080;-57
2023/06/18 06:43:38;;;;;;;24.17;15.88;;;19.70;99.90;;;;;;5008062;28;20050;-58
2023/06/18 06:46:04;;;;;;;19.83;16.67;;;19.70;99.90;;;;;;5007988;28;20515;-54
2023/06/18 06:48:31;;;;;;;20.15;18.00;;;19.70;99.90;;;;;;5004436;28;20038;-56
2023/06/18 06:50:58;;;;;;;29.20;16.50;;;19.70;99.90;;;;;;5008180;28;20046;-57
2023/06/18 06:53:25;;;;;;;17.88;14.88;;;19.80;99.90;;;;;;5008523;28;20061;-57
2023/06/18 06:55:52;;;;;;;20.13;15.05;;;19.80;99.90;;;;;;5007941;28;20061;-58
2023/06/18 06:58:19;;;;;;;17.30;14.02;;;19.90;99.90;;;;;;5007676;28;20105;-54
2023/06/18 07:00:46;;;;;;;15.05;13.48;;;19.90;99.90;;;;;;5008030;28;20041;-59
2023/06/18 07:03:13;;;;;;;18.00;15.63;;;20.00;99.90;;;;;;5007776;28;20045;-59
2023/06/18 07:05:40;;;;;;;19.88;15.93;;;20.20;99.90;;;;;;5013479;28;20539;-58
2023/06/18 07:08:07;;;;;;;17.35;14.27;;;20.30;99.90;;;;;;5016376;28;20042;-57
2023/06/18 07:10:34;;;;;;;20.58;14.93;;;20.40;99.90;;;;;;5010616;28;20049;-58
2023/06/18 07:13:01;;;;;;;17.85;14.68;;;20.50;99.90;;;;;;5011782;28;20658;-59
2023/06/18 07:15:28;;;;;;;20.67;14.65;;;20.60;99.90;;;;;;4984908;28;20045;-55
2023/06/18 07:17:55;;;;;;;12.93;11.27;;;20.60;99.90;;;;;;5007430;28;20038;-58
2023/06/18 07:20:22;;;;;;;22.20;12.73;;;20.70;99.90;;;;;;5007782;28;20046;-57
2023/06/18 07:22:49;;;;;;;14.43;11.88;;;20.80;99.90;;;;;;5007749;28;20485;-56
2023/06/18 07:25:16;;;;;;;16.58;11.98;;;20.90;99.90;;;;;;4983160;28;20429;-58
2023/06/18 07:27:43;;;;;;;14.38;10.93;;;20.90;99.90;;;;;;5008497;28;20466;-57
2023/06/18 07:30:10;;;;;;;13.50;11.50;;;21.00;99.90;;;;;;5007926;28;20050;-58
2023/06/18 07:32:37;;;;;;;11.90;10.70;;;21.20;99.90;;;;;;5009552;28;20045;-57
2023/06/18 07:35:05;;;;;;;17.85;11.43;;;21.30;99.90;;;;;;5005595;28;20046;-57
2023/06/18 07:37:32;;;;;;;15.15;10.70;;;21.40;99.90;;;;;;5007343;28;20046;-57
2023/06/18 07:39:59;;;;;;;12.70;8.82;;;21.50;99.90;;;;;;5007379;28;20053;-57
2023/06/18 07:42:26;;;;;;;10.52;8.82;;;21.60;99.90;;;;;;5008702;28;20045;-56
2023/06/18 07:44:53;;;;;;;14.32;8.18;;;21.70;99.90;;;;;;4660425;28;9999803;-56
2023/06/18 07:47:20;;;;;;;12.07;8.60;;;21.80;99.90;;;;;;5007778;28;20108;-56
2023/06/18 07:49:47;;;;;;;9.55;7.78;;;21.90;99.90;;;;;;4987335;28;20062;-57
2023/06/18 07:52:14;;;;;;;11.85;9.02;;;22.00;99.90;;;;;;5004345;28;20146;-57
2023/06/18 07:54:41;;;;;;;13.80;9.48;;;22.00;99.90;;;;;;4989914;28;20041;-57
2023/06/18 07:57:08;;;;;;;12.80;10.40;;;22.10;99.90;;;;;;5004040;28;20085;-55
2023/06/18 07:59:35;;;;;;;15.45;9.23;;;22.10;99.90;;;;;;5003067;28;20505;-58
2023/06/18 08:02:02;;;;;;;13.50;8.10;;;22.10;99.90;;;;;;5004882;28;20096;-56
2023/06/18 08:04:29;;;;;;;13.27;9.32;;;22.20;99.90;;;;;;4990913;28;20140;-57
2023/06/18 08:06:56;;;;;;;13.20;9.93;;;22.20;99.90;;;;;;5003392;28;20053;-58
2023/06/18 08:09:22;;;;;;;11.35;8.93;;;22.20;99.90;;;;;;5006430;28;20053;-57
2023/06/18 08:11:49;;;;;;;11.50;10.27;;;22.20;99.90;;;;;;5018466;28;20076;-57
2023/06/18 08:14:16;;;;;;;12.93;10.50;;;22.10;99.90;;;;;;5012249;28;20081;-58
2023/06/18 08:16:43;;;;;;;12.55;10.48;;;22.10;99.90;;;;;;5008572;28;20053;-58
2023/06/18 08:19:11;;;;;;;16.17;10.27;;;22.10;99.90;;;;;;5008669;28;20057;-60
2023/06/18 08:21:38;;;;;;;11.55;9.38;;;22.10;99.90;;;;;;5008010;28;20578;-57
2023/06/18 08:24:05;;;;;;;14.82;9.57;;;22.10;99.90;;;;;;5010415;28;20561;-57
2023/06/18 08:26:32;;;;;;;15.50;9.40;;;22.10;99.90;;;;;;4993059;28;20061;-58
2023/06/18 08:28:58;;;;;;;15.85;9.82;;;22.20;99.90;;;;;;5006677;28;20507;-58
2023/06/18 08:31:29;;;;;;;11.80;9.82;;;22.30;99.90;;;;;;5007161;28;20496;-55
2023/06/18 08:33:55;;;;;;;16.20;10.82;;;22.40;99.90;;;;;;5006953;28;20045;-55
2023/06/18 08:36:22;;;;;;;13.95;9.68;;;22.40;99.90;;;;;;5011997;28;20665;-54
2023/06/18 08:38:49;;;;;;;16.75;9.20;;;22.40;99.90;;;;;;5012943;28;20805;-52
2023/06/18 08:41:16;;;;;;;12.18;9.57;;;22.50;99.90;;;;;;5007004;28;20057;-52
2023/06/18 08:43:43;;;;;;;12.68;9.95;;;22.60;99.90;;;;;;5008033;28;20041;-53
2023/06/18 08:46:13;;;;;;;15.43;10.15;;;22.60;99.90;;;;;;4993171;28;20062;-55
2023/06/18 08:48:45;;;;;;;13.13;9.55;;;22.70;99.90;;;;;;5007411;28;20402;-52
2023/06/18 08:51:12;;;;;;;10.00;9.00;;;22.70;99.90;;;;;;4996771;28;20116;-53
2023/06/18 08:54:03;;;;;;;13.32;9.57;;;22.80;99.90;;;;;;5004179;28;20046;-54
2023/06/18 08:56:29;;;;;;;13.55;9.55;;;23.00;99.90;;;;;;4982065;28;20136;-51
2023/06/18 08:58:59;;;;;;;17.25;9.55;;;23.10;99.90;;;;;;5017016;28;20581;-53
2023/06/18 09:01:26;;;;;;;18.90;9.77;;;23.00;99.90;;;;;;5005742;28;20053;-55
2023/06/18 09:03:53;;;;;;;16.92;10.45;;;23.10;99.90;;;;;;5005077;28;20100;-55
2023/06/18 09:06:22;;;;;;;13.55;9.27;;;23.10;99.90;;;;;;4998560;28;20049;-54
2023/06/18 09:08:49;;;;;;;11.75;8.90;;;23.20;99.90;;;;;;5001614;28;20050;-55
2023/06/18 09:11:15;;;;;;;14.63;9.68;;;23.40;99.90;;;;;;5003767;28;20493;-51
2023/06/18 09:13:42;;;;;;;11.48;9.68;;;23.40;99.90;;;;;;5004712;28;20044;-51
2023/06/18 09:16:09;;;;;;;14.70;10.52;;;23.60;99.90;;;;;;4992922;28;20599;-52
2023/06/18 09:18:37;;;;;;;14.15;10.55;;;23.70;99.90;;;;;;5006568;28;20766;-49
2023/06/18 09:21:04;;;;;;;10.52;9.35;;;23.70;99.90;;;;;;5006456;28;20053;-49
2023/06/18 09:23:31;;;;;;;15.80;10.25;;;23.80;99.90;;;;;;5007818;28;20049;-47
2023/06/18 09:25:58;;;;;;;13.15;9.68;;;23.90;99.90;;;;;;5006734;28;20050;-52
2023/06/18 09:28:25;;;;;;;12.85;10.13;;;24.00;99.90;;;;;;5003934;28;20089;-48
2023/06/18 09:30:59;;;;;;;11.70;9.30;;;24.00;99.90;;;;;;5005572;28;20050;-53
2023/06/18 09:33:30;;;;;;;15.27;10.30;;;23.90;99.90;;;;;;4989332;28;20053;-55
2023/06/18 09:36:04;;;;;;;12.50;10.90;;;24.00;99.90;;;;;;5006406;28;20057;-48
2023/06/18 09:38:36;;;;;;;15.63;9.52;;;24.00;99.90;;;;;;5009987;28;20089;-58
2023/06/18 09:41:09;;;;;;;13.88;10.75;;;24.20;99.90;;;;;;4991694;28;20766;-53
2023/06/18 09:43:37;;;;;;;11.93;8.75;;;24.30;99.90;;;;;;5004241;28;20068;-50
2023/06/18 09:46:07;;;;;;;15.63;9.48;;;24.30;99.90;;;;;;5005906;28;20059;-50
2023/06/18 09:48:39;;;;;;;14.38;10.07;;;24.40;99.90;;;;;;5010763;28;20045;-55
2023/06/18 09:51:06;;;;;;;11.30;8.60;;;24.40;99.90;;;;;;5015000;28;20049;-47
2023/06/18 09:53:33;;;;;;;12.05;7.85;;;24.40;99.90;;;;;;5005110;28;20286;-51
2023/06/18 09:56:15;;;;;;;11.13;7.38;;;24.50;99.90;;;;;;5004703;28;20054;-51
2023/06/18 09:58:50;;;;;;;10.52;8.18;;;24.70;99.90;;;;;;5006542;28;20045;-56
2023/06/18 10:01:18;;;;;;;11.00;8.75;;;24.80;99.90;;;;;;4997385;28;20102;-54
2023/06/18 10:03:45;;;;;;;16.80;8.75;;;24.90;99.90;;;;;;5008991;28;20045;-49
2023/06/18 10:06:19;;;;;;;11.52;8.82;;;24.90;99.90;;;;;;5005024;28;20524;-54
2023/06/18 10:08:47;;;;;;;8.13;6.90;;;25.00;99.90;;;;;;5004509;28;20038;-52
2023/06/18 10:11:15;;;;;;;10.43;6.45;;;25.10;99.90;;;;;;5005268;28;20050;-54
2023/06/18 10:13:48;;;;;;;7.90;6.20;;;25.30;99.90;;;;;;5006553;28;20045;-55
2023/06/18 10:16:18;;;;;;;;;;;25.80;99.90;;;;;;5003530;28;20058;-54
2023/06/18 10:19:13;;;;;;;11.65;6.97;;;26.10;99.90;;;;;;5006416;28;19935;-55
2023/06/18 10:21:47;;;;;;;12.43;6.88;;;26.40;99.90;;;;;;5011630;28;20069;-53
2023/06/18 10:24:17;;;;;;;9.63;6.28;;;26.60;99.90;;;;;;5010151;28;20072;-54
2023/06/18 10:26:45;;;;;;;10.23;6.45;;;26.90;99.90;;;;;;4979153;28;20074;-56
2023/06/18 10:29:12;;;;;;;8.48;6.32;;;27.00;99.90;;;;;;4995074;28;20045;-55
2023/06/18 10:31:39;;;;;;;8.90;6.43;;;27.20;99.90;;;;;;5003966;28;20069;-51
2023/06/18 10:34:06;;;;;;;9.60;5.95;;;27.40;99.90;;;;;;5004685;28;20042;-52
2023/06/18 10:36:33;;;;;;;8.23;6.05;;;27.60;99.90;;;;;;4988053;28;20368;-52
2023/06/18 10:39:00;;;;;;;7.45;6.20;;;27.80;99.90;;;;;;5011594;28;20552;-51
2023/06/18 10:41:27;;;;;;;10.55;6.90;;;27.60;99.90;;;;;;4986407;28;20052;-54
2023/06/18 10:43:54;;;;;;;12.30;6.68;;;27.40;99.90;;;;;;5006300;28;20056;-53
2023/06/18 10:46:21;;;;;;;8.10;6.38;;;27.20;99.90;;;;;;5002240;28;20313;-54
2023/06/18 10:49:17;;;;;;;7.78;6.57;;;27.10;99.90;;;;;;4999356;28;20573;-50
2023/06/18 10:51:56;;;;;;;8.20;6.53;;;27.10;99.90;;;;;;5003954;28;20049;-51
2023/06/18 10:54:29;;;;;;;8.95;6.97;;;27.00;99.90;;;;;;5010964;28;20050;-54
2023/06/18 10:56:58;;;;;;;10.20;7.00;;;26.80;99.90;;;;;;5004237;28;20056;-54
2023/06/18 10:59:44;;;;;;;11.80;6.90;;;26.60;99.90;;;;;;5002003;28;20046;-51
2023/06/18 11:02:12;;;;;;;10.32;6.88;;;26.80;99.90;;;;;;5002311;28;20053;-55
2023/06/18 11:04:39;;;;;;;17.17;6.70;;;26.90;99.90;;;;;;5007356;28;20270;-53
2023/06/18 11:07:23;;;;;;;11.10;7.53;;;27.00;99.90;;;;;;5003248;28;20419;-49
2023/06/18 11:09:57;;;;;;;9.75;7.72;;;27.00;99.90;;;;;;5006314;28;20050;-50
2023/06/18 11:12:26;;;;;;;9.30;6.40;;;27.00;99.90;;;;;;4989278;28;20520;-51
2023/06/18 11:15:11;;;;;;;13.15;7.40;;;27.00;99.90;;;;;;5003178;28;20046;-50
2023/06/18 11:17:40;;;;;;;7.68;6.75;;;27.00;99.90;;;;;;5004117;28;20054;-51
2023/06/18 11:20:07;;;;;;;7.57;6.53;;;26.90;99.90;;;;;;4988905;28;20568;-52
2023/06/18 11:22:34;;;;;;;8.52;6.75;;;26.90;99.90;;;;;;5003648;28;20898;-52
2023/06/18 11:25:01;;;;;;;6.93;6.13;;;27.10;99.90;;;;;;4974263;28;20045;-54
2023/06/18 11:27:30;;;;;;;8.98;6.30;;;27.00;99.90;;;;;;4990452;28;20177;-48
2023/06/18 11:29:57;;;;;;;7.93;5.95;;;27.00;99.90;;;;;;5005675;28;20132;-52
2023/06/18 11:32:24;;;;;;;13.65;6.55;;;26.90;99.90;;;;;;5006452;28;20058;-53
2023/06/18 11:34:53;;;;;;;9.98;6.30;;;26.90;99.90;;;;;;5003931;28;20133;-53
2023/06/18 11:37:20;;;;;;;11.77;6.90;;;26.90;99.90;;;;;;5003438;28;20058;-55
2023/06/18 11:39:47;;;;;;;5.80;5.20;;;27.10;99.90;;;;;;4989426;28;20041;-53
2023/06/18 11:42:20;;;;;;;7.50;5.90;;;27.10;99.90;;;;;;5010502;28;20496;-55
2023/06/18 11:44:50;;;;;;;7.65;6.28;;;27.20;99.90;;;;;;5000717;28;20053;-55
2023/06/18 11:47:18;;;;;;;7.43;5.88;;;27.20;99.90;;;;;;5007854;28;20120;-53
2023/06/18 11:49:45;;;;;;;8.00;6.43;;;27.20;99.90;;;;;;5007065;28;20124;-50
2023/06/18 11:52:14;;;;;;;8.27;5.55;;;27.20;99.90;;;;;;5011851;28;20068;-54
2023/06/18 11:54:40;;;;;;;10.75;5.47;;;27.20;99.90;;;;;;4996069;28;20050;-51
2023/06/18 11:57:10;;;;;;;10.10;6.38;;;27.20;99.90;;;;;;5009570;28;20064;-54
2023/06/18 11:59:40;;;;;;;9.23;6.60;;;27.10;99.90;;;;;;5013313;28;20463;-51
2023/06/18 12:02:14;;;;;;;7.35;5.80;;;27.00;99.90;;;;;;5007255;28;20042;-55
2023/06/18 12:04:41;;;;;;;6.65;5.95;;;26.90;99.90;;;;;;4995839;28;20108;-54
2023/06/18 12:07:08;;;;;;;11.40;6.32;;;26.70;99.90;;;;;;5001195;28;20057;-54
2023/06/18 12:09:35;;;;;;;10.65;6.50;;;26.70;99.90;;;;;;5008858;28;20077;-52
2023/06/18 12:12:17;;;;;;;10.93;6.28;;;26.60;99.90;;;;;;5011168;28;20050;-52
2023/06/18 12:15:08;;;;;;;8.10;6.32;;;26.50;99.90;;;;;;5011338;28;20056;-48
2023/06/18 12:17:38;;;;;;;8.65;6.00;;;26.60;99.90;;;;;;4978199;28;20052;-55
2023/06/18 12:20:07;;;;;;;8.07;6.22;;;26.50;99.90;;;;;;5013350;28;20083;-53
2023/06/18 12:22:34;;;;;;;11.00;6.05;;;26.60;99.90;;;;;;5010283;28;20065;-50
2023/06/18 12:25:01;;;;;;;9.98;6.03;;;26.60;99.90;;;;;;4994887;28;20046;-52
2023/06/18 12:27:28;;;;;;;9.02;5.95;;;26.60;99.90;;;;;;5012116;28;20055;-53
2023/06/18 12:29:59;;;;;;;7.72;5.25;;;26.60;99.90;;;;;;4998418;28;20054;-53
2023/06/18 12:32:26;;;;;;;5.97;4.90;;;26.60;99.90;;;;;;5008809;28;20054;-54
2023/06/18 12:34:55;;;;;;;6.78;4.75;;;26.50;99.90;;;;;;5012102;28;20121;-51
2023/06/18 12:37:32;;;;;;;7.07;4.85;;;26.30;99.90;;;;;;5006822;28;20054;-53